Flight Track Log - Related Links

Times and Time Zones

All times are in EDT time to prevent confusion due to time zone crossing. See the DAL268 flight status page for this flight to view local times or setup timezone preferences in your user account.

Time Position Orientation Groundspeed Altitude Reporting Facility
EDT Latitude Longitude Course Direction KTS MPH feet Rate Location/Type
Sat 02:19:56 PM 37.6140 -122.3830 North 11 13  Level FlightAware ADS-B
Sat 02:20:39 PM 37.6140 -122.3820 90° East 13 15 23 Level FlightAware ADS-B
Sat 02:21:10 PM 37.6130 -122.3820 180° South 10 12 24 Level FlightAware ADS-B
Sat 02:23:00 PM 37.6861 -122.1250 67° East  Level FlightAware Approximate
Sat 02:24:00 PM 37.7370 -121.9900 65° Northeast  Level FlightAware Approximate
Sat 02:32:55 PM 37.6253 -122.3680 28° Northeast 160 184 300  Level FlightAware ADS-B
Sat 02:33:03 PM 37.6307 -122.3650 24° Northeast 164 189 600 2,182 Climbing FlightAware ADS-B
Sat 02:33:06 PM 37.6329 -122.3630 36° Northeast 168 193 700 1,500 Climbing FlightAware ADS-B
Sat 02:33:11 PM 37.6358 -122.3610 29° Northeast 173 199 800 2,308 Climbing FlightAware ADS-B
Sat 02:33:19 PM 37.6408 -122.3540 48° Northeast 177 204 1,200 2,348 Climbing FlightAware ADS-B
Sat 02:33:34 PM 37.6492 -122.3430 46° Northeast 188 216 1,700 1,800 Climbing FlightAware ADS-B
Sat 02:33:49 PM 37.6588 -122.3300 47° Northeast 209 241 2,100 1,400 Climbing FlightAware ADS-B
Sat 02:34:04 PM 37.6698 -122.3160 45° Northeast 233 268 2,400 1,800 Climbing FlightAware ADS-B
Sat 02:34:19 PM 37.6816 -122.3010 45° Northeast 244 281 3,000 2,118 Climbing FlightAware ADS-B
Sat 02:34:38 PM 37.6965 -122.2820 45° Northeast 259 298 3,600 2,294 Climbing FlightAware ADS-B
Sat 02:34:53 PM 37.7094 -122.2650 46° Northeast 266 306 4,300 3,000 Climbing FlightAware ADS-B
Sat 02:35:12 PM 37.7255 -122.2430 47° Northeast 269 310 5,300 3,073 Climbing FlightAware ADS-B
Sat 02:35:34 PM 37.7451 -122.2160 47° Northeast 276 318 6,400 2,903 Climbing FlightAware ADS-B
Sat 02:35:43 PM 37.7509 -122.2040 59° Northeast 282 325 6,800 2,769 Climbing FlightAware ADS-B
Sat 02:35:47 PM 37.7527 -122.1980 69° East 283 326 7,000 3,429 Climbing FlightAware ADS-B
Sat 02:35:57 PM 37.7572 -122.1820 70° East 280 322 7,600 2,769 Climbing FlightAware ADS-B
Sat 02:36:13 PM 37.7655 -122.1580 66° East 287 330 8,200 2,516 Climbing FlightAware ADS-B
Sat 02:36:28 PM 37.7738 -122.1350 65° Northeast 291 335 8,900 2,750 Climbing FlightAware ADS-B
Sat 02:36:37 PM 37.7787 -122.1210 66° East 294 338 9,300 2,750 Climbing FlightAware ADS-B
Sat 02:36:52 PM 37.7862 -122.0970 68° East 296 341 10,000 2,133 Climbing FlightAware ADS-B
Sat 02:37:22 PM 37.8001 -122.0460 71° East 316 364 10,900 1,574 Climbing FlightAware ADS-B
Sat 02:37:53 PM 37.8146 -121.9900 72° East 344 396 11,600 1,161 Climbing FlightAware ADS-B
Sat 02:38:24 PM 37.8314 -121.9260 72° East 369 425 12,100 1,219 Climbing FlightAware ADS-B
Sat 02:38:57 PM 37.8502 -121.8560 71° East 401 461 12,900 1,810 Climbing FlightAware ADS-B
Sat 02:39:27 PM 37.8684 -121.7880 71° East 411 473 14,000 2,100 Climbing FlightAware ADS-B
Sat 02:39:57 PM 37.8871 -121.7180 71° East 420 483 15,000 1,967 Climbing FlightAware ADS-B
Sat 02:40:28 PM 37.9063 -121.6460 71° East 427 491 16,000 2,063 Climbing FlightAware ADS-B
Sat 02:41:01 PM 37.9252 -121.5670 73° East 433 498 17,200 2,063 Climbing FlightAware ADS-B
Sat 02:41:32 PM 37.9417 -121.4890 75° East 439 505 18,200 1,775 Climbing FlightAware ADS-B
Sat 02:42:12 PM 37.9600 -121.3930 76° East 447 514 19,300 1,650 Climbing FlightAware ADS-B
Sat 02:42:52 PM 37.9800 -121.2900 76° East 457 526 20,400 1,590 Climbing FlightAware ADS-B
Sat 02:43:35 PM 38.0000 -121.1790 77° East 466 536 21,500 1,556 Climbing FlightAware ADS-B
Sat 02:44:13 PM 38.0210 -121.0720 76° East 475 547 22,500 1,446 Climbing FlightAware ADS-B
Sat 02:44:58 PM 38.0430 -120.9520 77° East 486 559 23,500 1,333 Climbing FlightAware ADS-B
Sat 02:45:43 PM 38.0670 -120.8270 76° East 493 567 24,500 1,301 Climbing FlightAware ADS-B
Sat 02:46:21 PM 38.0870 -120.7190 77° East 500 575 25,300 1,231 Climbing FlightAware ADS-B
Sat 02:47:01 PM 38.1070 -120.6070 77° East 506 582 26,100 1,214 Climbing FlightAware ADS-B
Sat 02:47:45 PM 38.1320 -120.4710 77° East 515 593 27,000 1,364 Climbing FlightAware ADS-B
Sat 02:48:29 PM 38.1560 -120.3420 77° East 513 590 28,100 1,535 Climbing FlightAware ADS-B
Sat 02:49:11 PM 38.1780 -120.2210 77° East 508 585 29,200 1,535 Climbing FlightAware ADS-B
Sat 02:49:55 PM 38.2010 -120.0960 77° East 505 581 30,300 1,500 Climbing FlightAware ADS-B
Sat 02:50:47 PM 38.2280 -119.9440 77° East 501 577 31,600 1,485 Climbing FlightAware ADS-B
Sat 02:51:32 PM 38.2510 -119.8140 77° East 499 574 32,700 1,295 Climbing FlightAware ADS-B
Sat 02:52:15 PM 38.2720 -119.6930 77° East 498 573 33,500 1,125 Climbing FlightAware ADS-B
Sat 02:52:52 PM 38.2910 -119.5860 77° East 496 571 34,200 1,111 Climbing FlightAware ADS-B
Sat 02:53:36 PM 38.3130 -119.4610 77° East 493 567 35,000 1,023 Climbing FlightAware ADS-B
Sat 02:54:20 PM 38.3340 -119.3370 78° East 494 568 35,700 975 Climbing FlightAware ADS-B
Sat 02:54:56 PM 38.3520 -119.2340 77° East 494 568 36,300 951 Climbing FlightAware ADS-B
Sat 02:55:42 PM 38.3750 -119.1020 77° East 493 567 37,000 477 Climbing FlightAware ADS-B
Sat 02:56:24 PM 38.3950 -118.9840 78° East 493 567 37,000  Level FlightAware ADS-B
Sat 02:57:08 PM 38.4160 -118.8610 78° East 490 564 37,000  Level FlightAware ADS-B
Sat 02:57:48 PM 38.4350 -118.7470 78° East 491 565 37,000  Level FlightAware ADS-B
Sat 02:59:01 PM 38.4660 -118.5590 78° East 491 565 37,000  Level FlightAware ADS-B
Sat 02:59:40 PM 38.4870 -118.4310 78° East 492 566 37,000  Level FlightAware ADS-B
Sat 03:00:22 PM 38.5070 -118.3110 78° East 493 567 37,000  Level FlightAware ADS-B
Sat 03:01:05 PM 38.5270 -118.1900 78° East 494 568 37,000  Level FlightAware ADS-B
Sat 03:01:48 PM 38.5470 -118.0660 78° East 495 570 37,000  Level FlightAware ADS-B
Sat 03:02:30 PM 38.5660 -117.9500 78° East 495 570 37,000  Level FlightAware ADS-B
Sat 03:03:10 PM 38.5820 -117.8520 78° East 495 570 37,000  Level FlightAware ADS-B
Sat 03:03:46 PM 38.5960 -117.7650 78° East 495 570 37,000  Level FlightAware ADS-B
Sat 03:04:35 PM 38.6160 -117.6450 78° East 495 570 37,000  Level FlightAware ADS-B
Sat 03:05:12 PM 38.6310 -117.5550 78° East 495 570 37,000  Level FlightAware ADS-B
Sat 03:06:01 PM 38.6510 -117.4350 78° East 495 570 37,000  Level FlightAware ADS-B
Sat 03:06:37 PM 38.6650 -117.3480 78° East 495 570 37,000  Level FlightAware ADS-B
Sat 03:07:25 PM 38.6850 -117.2310 78° East 495 570 37,000  Level FlightAware ADS-B
Sat 03:08:02 PM 38.7000 -117.1400 78° East 495 570 37,000  Level FlightAware ADS-B
Sat 03:08:48 PM 38.7180 -117.0280 78° East 495 570 37,000  Level FlightAware ADS-B
Sat 03:09:24 PM 38.7330 -116.9400 78° East 495 570 37,000  Level FlightAware ADS-B
Sat 03:10:10 PM 38.7520 -116.8280 78° East 495 570 37,000  Level FlightAware ADS-B
Sat 03:10:45 PM 38.7660 -116.7420 78° East 495 570 37,000  Level FlightAware ADS-B
Sat 03:11:51 PM 38.7920 -116.5810 78° East 495 570 37,000  Level FlightAware ADS-B
Sat 03:12:27 PM 38.8070 -116.4930 78° East 495 570 37,000  Level FlightAware ADS-B
Sat 03:13:01 PM 38.8375 -116.1556 78° East 502 578 37,000  Level Oakland Center
Sat 03:14:28 PM 38.8769 -115.8767 80° East 496 571 37,000  Level Salt Lake Center
Sat 03:15:30 PM 38.9014 -115.6992 80° East 501 577 37,000  Level Salt Lake Center
Sat 03:16:32 PM 38.9258 -115.5233 80° East 501 577 37,000  Level Salt Lake Center
Sat 03:17:34 PM 38.9522 -115.3383 80° East 502 578 37,000  Level Salt Lake Center
Sat 03:18:36 PM 38.9764 -115.1597 80° East 506 582 37,000  Level Salt Lake Center
Sat 03:19:38 PM 39.0014 -114.9817 80° East 506 582 37,000  Level Salt Lake Center
Sat 03:20:40 PM 39.0247 -114.8031 80° East 507 583 37,000  Level Salt Lake Center
Sat 03:21:42 PM 39.0525 -114.5903 80° East 504 580 37,000  Level Salt Lake Center
Sat 03:22:44 PM 39.0744 -114.4133 81° East 502 578 37,000  Level Salt Lake Center
Sat 03:23:45 PM 39.0975 -114.2367 80° East 501 577 37,000  Level Salt Lake Center
Sat 03:24:47 PM 39.1200 -114.0597 81° East 501 577 37,000  Level Salt Lake Center
Sat 03:30:52 PM 39.2508 -112.9620 81° East 505 581 37,000  Level FlightAware ADS-B
Sat 03:31:22 PM 39.2612 -112.8710 82° East 506 582 37,000  Level FlightAware ADS-B
Sat 03:31:53 PM 39.2717 -112.7790 82° East 506 582 37,000  Level FlightAware ADS-B
Sat 03:32:33 PM 39.2851 -112.6590 82° East 508 585 37,000  Level FlightAware ADS-B
Sat 03:33:01 PM 39.2944 -112.5770 82° East 510 587 37,000  Level FlightAware ADS-B
Sat 03:33:28 PM 39.3096 -112.4960 76° East 506 582 37,000  Level FlightAware ADS-B
Sat 03:33:59 PM 39.3369 -112.4100 68° East 505 581 37,000  Level FlightAware ADS-B
Sat 03:34:32 PM 39.3694 -112.3210 65° Northeast 504 580 37,000  Level FlightAware ADS-B
Sat 03:35:02 PM 39.4003 -112.2380 64° Northeast 505 581 37,000  Level FlightAware ADS-B
Sat 03:35:33 PM 39.4314 -112.1540 64° Northeast 506 582 37,000  Level FlightAware ADS-B
Sat 03:36:04 PM 39.4621 -112.0710 64° Northeast 507 583 37,000  Level FlightAware ADS-B
Sat 03:36:34 PM 39.4929 -111.9870 65° Northeast 507 583 37,000  Level FlightAware ADS-B
Sat 03:37:05 PM 39.5231 -111.9040 65° Northeast 507 583 37,000  Level FlightAware ADS-B
Sat 03:37:42 PM 39.5604 -111.8010 65° Northeast 509 586 37,000  Level FlightAware ADS-B
Sat 03:38:14 PM 39.5917 -111.7140 65° Northeast 509 586 37,000  Level FlightAware ADS-B
Sat 03:38:48 PM 39.6255 -111.6200 65° Northeast 510 587 37,000  Level FlightAware ADS-B
Sat 03:39:18 PM 39.6557 -111.5360 65° Northeast 510 587 37,000  Level FlightAware ADS-B
Sat 03:39:48 PM 39.6859 -111.4520 65° Northeast 511 588 37,000  Level FlightAware ADS-B
Sat 03:40:19 PM 39.7168 -111.3650 65° Northeast 512 589 37,000  Level FlightAware ADS-B
Sat 03:40:50 PM 39.7470 -111.2810 65° Northeast 512 589 37,000  Level FlightAware ADS-B
Sat 03:41:22 PM 39.7793 -111.1890 65° Northeast 512 589 37,000  Level FlightAware ADS-B
Sat 03:41:55 PM 39.8117 -111.0980 65° Northeast 511 588 37,000  Level FlightAware ADS-B
Sat 03:42:30 PM 39.8462 -111.0000 65° Northeast 514 592 37,000  Level FlightAware ADS-B
Sat 03:43:03 PM 39.8787 -110.9080 65° Northeast 515 593 37,000  Level FlightAware ADS-B
Sat 03:43:48 PM 39.9227 -110.7820 65° Northeast 514 592 37,000  Level FlightAware ADS-B
Sat 03:44:42 PM 39.9750 -110.6330 65° Northeast 513 590 37,000  Level FlightAware ADS-B
Sat 03:45:19 PM 40.0110 -110.5290 66° East 513 590 37,000  Level FlightAware ADS-B
Sat 03:46:04 PM 40.0520 -110.4100 66° East 513 590 37,000  Level FlightAware ADS-B
Sat 03:46:48 PM 40.0970 -110.2790 66° East 514 592 37,000  Level FlightAware ADS-B
Sat 03:47:56 PM 40.1580 -110.0840 68° East 514 592 37,000  Level FlightAware ADS-B
Sat 03:48:38 PM 40.1870 -109.9610 73° East 513 590 37,000  Level FlightAware ADS-B
Sat 03:49:20 PM 40.2150 -109.8350 74° East 511 588 37,000  Level FlightAware ADS-B
Sat 03:50:17 PM 40.2520 -109.6660 74° East 510 587 37,000  Level FlightAware ADS-B
Sat 03:51:02 PM 40.2820 -109.5300 74° East 511 588 37,000  Level FlightAware ADS-B
Sat 03:51:45 PM 40.3090 -109.4050 74° East 511 588 37,000  Level FlightAware ADS-B
Sat 03:52:24 PM 40.3340 -109.2870 74° East 510 587 37,000  Level FlightAware ADS-B
Sat 03:53:06 PM 40.3600 -109.1670 74° East 506 582 37,000  Level FlightAware ADS-B
Sat 03:53:51 PM 40.3890 -109.0330 74° East 507 583 37,000  Level FlightAware ADS-B
Sat 03:54:32 PM 40.4160 -108.9090 74° East 506 582 37,000  Level FlightAware ADS-B
Sat 03:55:13 PM 40.4410 -108.7880 75° East 506 582 37,000  Level FlightAware ADS-B
Sat 03:55:53 PM 40.4660 -108.6720 74° East 506 582 37,000  Level FlightAware ADS-B
Sat 03:56:38 PM 40.4940 -108.5370 75° East 503 579 37,000  Level FlightAware ADS-B
Sat 03:57:17 PM 40.5170 -108.4250 75° East 502 578 37,000  Level FlightAware ADS-B
Sat 03:57:58 PM 40.5430 -108.3020 74° East 501 577 37,000  Level FlightAware ADS-B
Sat 03:58:42 PM 40.5690 -108.1730 75° East 500 575 37,000  Level FlightAware ADS-B
Sat 03:59:25 PM 40.5950 -108.0490 75° East 498 573 37,000  Level FlightAware ADS-B
Sat 04:00:03 PM 40.6170 -107.9380 75° East 498 573 37,000  Level FlightAware ADS-B
Sat 04:00:50 PM 40.6450 -107.7990 75° East 496 571 37,000  Level FlightAware ADS-B
Sat 04:01:31 PM 40.6690 -107.6810 75° East 497 572 37,000  Level FlightAware ADS-B
Sat 04:02:26 PM 40.7010 -107.5240 75° East 497 572 37,000  Level FlightAware ADS-B
Sat 04:03:08 PM 40.7260 -107.3960 76° East 497 572 37,000  Level FlightAware ADS-B
Sat 04:03:51 PM 40.7500 -107.2730 76° East 496 571 37,000  Level FlightAware ADS-B
Sat 04:04:33 PM 40.7750 -107.1470 75° East 499 574 37,000  Level FlightAware ADS-B
Sat 04:05:13 PM 40.7980 -107.0300 75° East 502 578 37,000  Level FlightAware ADS-B
Sat 04:05:54 PM 40.8220 -106.9060 76° East 503 579 37,000  Level FlightAware ADS-B
Sat 04:06:39 PM 40.8470 -106.7740 76° East 505 581 37,000  Level FlightAware ADS-B
Sat 04:07:21 PM 40.8710 -106.6500 76° East 508 585 37,000  Level FlightAware ADS-B
Sat 04:08:17 PM 40.9030 -106.4800 76° East 511 588 37,000  Level FlightAware ADS-B
Sat 04:08:53 PM 40.9230 -106.3720 76° East 511 588 37,000  Level FlightAware ADS-B
Sat 04:09:43 PM 40.9520 -106.2200 76° East 515 593 37,000  Level FlightAware ADS-B
Sat 04:10:23 PM 40.9750 -106.0950 76° East 515 593 37,000  Level FlightAware ADS-B
Sat 04:10:58 PM 40.9940 -105.9910 76° East 518 596 37,000  Level FlightAware ADS-B
Sat 04:11:46 PM 41.0220 -105.8410 76° East 517 595 37,000  Level FlightAware ADS-B
Sat 04:12:29 PM 41.0450 -105.7100 77° East 520 598 37,000  Level FlightAware ADS-B
Sat 04:13:25 PM 41.0770 -105.5350 76° East 520 598 37,000  Level FlightAware ADS-B
Sat 04:13:53 PM 41.0930 -105.4470 76° East 518 596 37,000  Level FlightAware ADS-B
Sat 04:14:29 PM 41.1120 -105.3370 77° East 516 594 37,000  Level FlightAware ADS-B
Sat 04:15:17 PM 41.1380 -105.1890 77° East 512 589 37,000  Level FlightAware ADS-B
Sat 04:16:00 PM 41.1610 -105.0590 77° East 511 588 37,000  Level FlightAware ADS-B
Sat 04:16:10 PM 41.1666 -105.0280 76° East 510 587 37,000  Level FlightAware ADS-B
Sat 04:16:40 PM 41.1826 -104.9370 77° East 508 585 37,000  Level FlightAware ADS-B
Sat 04:17:16 PM 41.2017 -104.8270 77° East 507 583 37,000  Level FlightAware ADS-B
Sat 04:17:48 PM 41.2210 -104.7320 75° East 509 586 37,000  Level FlightAware ADS-B
Sat 04:18:18 PM 41.2417 -104.6430 73° East 509 586 37,000  Level FlightAware ADS-B
Sat 04:18:48 PM 41.2629 -104.5530 73° East 511 588 37,000  Level FlightAware ADS-B
Sat 04:19:23 PM 41.2874 -104.4490 73° East 512 589 37,000  Level FlightAware ADS-B
Sat 04:19:53 PM 41.3088 -104.3580 73° East 513 590 37,000  Level FlightAware ADS-B
Sat 04:20:23 PM 41.3299 -104.2670 73° East 514 592 37,000  Level FlightAware ADS-B
Sat 04:20:53 PM 41.3509 -104.1770 73° East 512 589 37,000  Level FlightAware ADS-B
Sat 04:21:23 PM 41.3719 -104.0860 73° East 511 588 37,000  Level FlightAware ADS-B
Sat 04:21:54 PM 41.3932 -103.9940 73° East 511 588 37,000  Level FlightAware ADS-B
Sat 04:22:24 PM 41.4140 -103.9030 73° East 510 587 37,000  Level FlightAware ADS-B
Sat 04:23:00 PM 41.4388 -103.7950 73° East 510 587 37,000  Level FlightAware ADS-B
Sat 04:23:32 PM 41.4602 -103.7010 73° East 510 587 37,000  Level FlightAware ADS-B
Sat 04:24:03 PM 41.4812 -103.6070 73° East 511 588 37,000  Level FlightAware ADS-B
Sat 04:24:35 PM 41.5027 -103.5120 73° East 509 586 37,000  Level FlightAware ADS-B
Sat 04:25:05 PM 41.5231 -103.4210 73° East 508 585 37,000  Level FlightAware ADS-B
Sat 04:25:35 PM 41.5433 -103.3310 73° East 508 585 37,000  Level FlightAware ADS-B
Sat 04:26:05 PM 41.5633 -103.2410 73° East 508 585 37,000  Level FlightAware ADS-B
Sat 04:26:37 PM 41.5846 -103.1450 73° East 507 583 37,000  Level FlightAware ADS-B
Sat 04:27:08 PM 41.6049 -103.0530 74° East 507 583 37,000  Level FlightAware ADS-B
Sat 04:27:39 PM 41.6251 -102.9610 74° East 505 581 37,000  Level FlightAware ADS-B
Sat 04:28:09 PM 41.6448 -102.8710 74° East 505 581 37,000  Level FlightAware ADS-B
Sat 04:28:58 PM 41.6769 -102.7240 74° East 504 580 37,000  Level FlightAware ADS-B
Sat 04:29:50 PM 41.7105 -102.5680 74° East 503 579 37,000  Level FlightAware ADS-B
Sat 04:30:47 PM 41.7470 -102.3980 74° East 502 578 37,000  Level FlightAware ADS-B
Sat 04:31:18 PM 41.7665 -102.3060 74° East 500 575 37,000  Level FlightAware ADS-B
Sat 04:31:50 PM 41.7866 -102.2110 74° East 500 575 37,000  Level FlightAware ADS-B
Sat 04:32:22 PM 41.8069 -102.1150 74° East 499 574 37,000  Level FlightAware ADS-B
Sat 04:33:02 PM 41.8317 -101.9980 74° East 498 573 37,000  Level FlightAware ADS-B
Sat 04:33:34 PM 41.8512 -101.9040 74° East 497 572 37,000  Level FlightAware ADS-B
Sat 04:34:12 PM 41.8747 -101.7910 74° East 497 572 37,000  Level FlightAware ADS-B
Sat 04:34:57 PM 41.9024 -101.6570 74° East 497 572 37,000  Level FlightAware ADS-B
Sat 04:35:32 PM 41.9217 -101.5736 74° East 497 572 37,000  Level Minneapolis Center
Sat 04:36:34 PM 41.9553 -101.3964 76° East 494 568 37,000  Level Minneapolis Center
Sat 04:37:49 PM 42.0019 -101.1733 74° East 493 567 37,000  Level Denver Center
Sat 04:38:51 PM 42.0417 -100.9733 75° East 494 568 37,000  Level Denver Center
Sat 04:39:52 PM 42.0750 -100.8028 75° East 492 566 37,000  Level Denver Center
Sat 04:40:54 PM 42.1081 -100.6353 75° East 487 560 37,000  Level Denver Center
Sat 04:41:56 PM 42.1467 -100.4350 75° East 492 566 37,000  Level Denver Center
Sat 04:42:45 PM 42.1739 -100.2922 76° East 490 564 37,000  Level Minneapolis Center
Sat 04:43:47 PM 42.2081 -100.1150 75° East 490 564 37,000  Level Minneapolis Center
Sat 04:44:49 PM 42.2422 -99.9364 75° East 489 563 37,000  Level Minneapolis Center
Sat 04:45:51 PM 42.2772 -99.7575 75° East 492 566 37,000  Level Minneapolis Center
Sat 04:46:53 PM 42.3083 -99.5817 76° East 485 558 37,000  Level Minneapolis Center
Sat 04:47:55 PM 42.3483 -99.3678 76° East 489 563 37,000  Level Minneapolis Center
Sat 04:48:57 PM 42.3806 -99.1928 76° East 484 557 37,000  Level Minneapolis Center
Sat 04:49:59 PM 42.4131 -99.0169 76° East 481 554 37,000  Level Minneapolis Center
Sat 04:51:00 PM 42.4433 -98.8419 77° East 479 551 37,000  Level Minneapolis Center
Sat 04:52:02 PM 42.4714 -98.6686 78° East 474 545 37,000  Level Minneapolis Center
Sat 04:53:04 PM 42.4811 -98.4903 86° East 473 544 37,000  Level Minneapolis Center
Sat 04:54:06 PM 42.4897 -98.3122 86° East 473 544 37,000  Level Minneapolis Center
Sat 04:55:08 PM 42.4969 -98.1322 87° East 475 547 37,000  Level Minneapolis Center
Sat 04:56:10 PM 42.5086 -97.9197 86° East 473 544 37,000  Level Minneapolis Center
Sat 04:57:12 PM 42.5156 -97.7450 87° East 470 541 37,000  Level Minneapolis Center
Sat 04:58:14 PM 42.5219 -97.5681 87° East 470 541 37,000  Level Minneapolis Center
Sat 04:59:16 PM 42.5294 -97.3903 87° East 471 542 37,000  Level Minneapolis Center
Sat 05:00:20 PM 42.5361 -97.2131 87° East 471 542 37,000  Level Minneapolis Center
Sat 05:01:22 PM 42.5439 -97.0361 87° East 470 541 37,000  Level Minneapolis Center
Sat 05:02:24 PM 42.5508 -96.8233 87° East 470 541 37,000  Level Minneapolis Center
Sat 05:03:26 PM 42.5564 -96.6461 88° East 471 542 37,000  Level Minneapolis Center
Sat 05:04:27 PM 42.5628 -96.4681 87° East 470 541 37,000  Level Minneapolis Center
Sat 05:05:29 PM 42.5436 -96.2961 99° East 464 534 37,000  Level Minneapolis Center
Sat 05:10:46 PM 42.3840 -95.4230 99° East 450 518 37,000  Level FlightAware ADS-B
Sat 05:11:30 PM 42.3910 -95.2790 86° East 465 535 37,000  Level FlightAware ADS-B
Sat 05:12:28 PM 42.4000 -95.1100 86° East 465 535 37,000  Level FlightAware ADS-B
Sat 05:13:26 PM 42.4070 -94.9590 86° East 465 535 37,000  Level FlightAware ADS-B
Sat 05:14:02 PM 42.4120 -94.8700 86° East 465 535 37,000  Level FlightAware ADS-B
Sat 05:14:49 PM 42.4180 -94.7540 86° East 465 535 37,000  Level FlightAware ADS-B
Sat 05:15:25 PM 42.4220 -94.6650 86° East 465 535 37,000  Level FlightAware ADS-B
Sat 05:16:14 PM 42.4290 -94.5440 85° East 465 535 37,000  Level FlightAware ADS-B
Sat 05:16:57 PM 42.4300 -94.3260 90° East 470 541 37,000  Level FlightAware ADS-B
Sat 05:17:31 PM 42.4330 -94.2270 88° East 469 540 37,000  Level FlightAware ADS-B
Sat 05:18:20 PM 42.4390 -94.0810 87° East 469 540 37,000  Level FlightAware ADS-B
Sat 05:19:00 PM 42.4430 -93.9630 87° East 470 541 37,000  Level FlightAware ADS-B
Sat 05:19:42 PM 42.4480 -93.8390 87° East 471 542 37,000  Level FlightAware ADS-B
Sat 05:20:18 PM 42.4510 -93.7360 88° East 472 543 37,000  Level FlightAware ADS-B
Sat 05:21:08 PM 42.4560 -93.5880 87° East 472 543 37,000  Level FlightAware ADS-B
Sat 05:21:48 PM 42.4600 -93.4680 87° East 472 543 37,000  Level FlightAware ADS-B
Sat 05:22:32 PM 42.4640 -93.3400 88° East 472 543 37,000  Level FlightAware ADS-B
Sat 05:23:08 PM 42.4670 -93.2330 88° East 471 542 37,000  Level FlightAware ADS-B
Sat 05:23:54 PM 42.4710 -93.0970 88° East 470 541 37,000  Level FlightAware ADS-B
Sat 05:24:38 PM 42.4740 -92.9700 88° East 469 540 37,000  Level FlightAware ADS-B
Sat 05:25:14 PM 42.4770 -92.8630 88° East 469 540 37,000  Level FlightAware ADS-B
Sat 05:26:02 PM 42.4800 -92.7240 88° East 468 539 37,000  Level FlightAware ADS-B
Sat 05:26:42 PM 42.4830 -92.6060 88° East 467 537 37,000  Level FlightAware ADS-B
Sat 05:27:22 PM 42.4860 -92.4920 88° East 467 537 37,000  Level FlightAware ADS-B
Sat 05:28:07 PM 42.4890 -92.3590 88° East 466 536 37,000  Level FlightAware ADS-B
Sat 05:28:49 PM 42.4910 -92.2400 89° East 464 534 37,000  Level FlightAware ADS-B
Sat 05:29:25 PM 42.4940 -92.1390 88° East 462 532 37,000  Level FlightAware ADS-B
Sat 05:30:13 PM 42.4960 -92.0000 89° East 461 531 37,000  Level FlightAware ADS-B
Sat 05:30:53 PM 42.4980 -91.8830 89° East 460 529 37,000  Level FlightAware ADS-B
Sat 05:31:34 PM 42.5000 -91.7690 89° East 460 529 37,000  Level FlightAware ADS-B
Sat 05:32:15 PM 42.5020 -91.6460 89° East 461 531 37,000  Level FlightAware ADS-B
Sat 05:33:03 PM 42.5040 -91.5060 89° East 463 533 37,000  Level FlightAware ADS-B
Sat 05:33:42 PM 42.5060 -91.3980 89° East 463 533 37,000  Level FlightAware ADS-B
Sat 05:34:20 PM 42.5070 -91.2880 89° East 463 533 37,000  Level FlightAware ADS-B
Sat 05:35:03 PM 42.5090 -91.1630 89° East 462 532 37,000  Level FlightAware ADS-B
Sat 05:35:47 PM 42.5100 -91.0330 89° East 462 532 37,000  Level FlightAware ADS-B
Sat 05:36:31 PM 42.5110 -90.9060 89° East 463 533 37,000  Level FlightAware ADS-B
Sat 05:37:13 PM 42.5120 -90.7870 89° East 462 532 37,000  Level FlightAware ADS-B
Sat 05:37:52 PM 42.5130 -90.6740 89° East 462 532 37,000  Level FlightAware ADS-B
Sat 05:38:37 PM 42.5140 -90.5430 89° East 460 529 37,000  Level FlightAware ADS-B
Sat 05:39:21 PM 42.5140 -90.4170 90° East 458 527 37,000  Level FlightAware ADS-B
Sat 05:39:58 PM 42.5150 -90.3130 89° East 458 527 37,000  Level FlightAware ADS-B
Sat 05:40:41 PM 42.5150 -90.1870 90° East 459 528 37,000  Level FlightAware ADS-B
Sat 05:41:28 PM 42.5150 -90.0550 90° East 460 529 37,000  Level FlightAware ADS-B
Sat 05:42:05 PM 42.5160 -89.9480 89° East 459 528 37,000  Level FlightAware ADS-B
Sat 05:42:48 PM 42.5160 -89.8270 90° East 460 529 37,000  Level FlightAware ADS-B
Sat 05:43:33 PM 42.5150 -89.6930 91° East 461 531 37,000  Level FlightAware ADS-B
Sat 05:44:13 PM 42.5150 -89.5810 90° East 460 529 37,000  Level FlightAware ADS-B
Sat 05:44:53 PM 42.5150 -89.4650 90° East 462 532 37,000  Level FlightAware ADS-B
Sat 05:45:36 PM 42.5140 -89.3410 91° East 464 534 37,000  Level FlightAware ADS-B
Sat 05:46:21 PM 42.5140 -89.2080 90° East 464 534 37,000  Level FlightAware ADS-B
Sat 05:47:03 PM 42.5130 -89.0880 91° East 462 532 37,000  Level FlightAware ADS-B
Sat 05:47:42 PM 42.5120 -88.9780 91° East 461 531 37,000  Level FlightAware ADS-B
Sat 05:48:23 PM 42.5110 -88.8570 91° East 461 531 37,000  Level FlightAware ADS-B
Sat 05:49:10 PM 42.5100 -88.7250 91° East 460 529 37,000  Level FlightAware ADS-B
Sat 05:49:49 PM 42.5080 -88.6110 91° East 461 531 37,000  Level FlightAware ADS-B
Sat 05:50:31 PM 42.5070 -88.4880 91° East 462 532 37,000  Level FlightAware ADS-B
Sat 05:51:14 PM 42.5050 -88.3660 91° East 462 532 37,000  Level FlightAware ADS-B
Sat 05:51:55 PM 42.5040 -88.2480 91° East 461 531 37,000  Level FlightAware ADS-B
Sat 05:52:38 PM 42.5020 -88.1260 91° East 462 532 37,000  Level FlightAware ADS-B
Sat 05:53:20 PM 42.5000 -88.0040 91° East 464 534 37,000  Level FlightAware ADS-B
Sat 05:54:01 PM 42.5000 -87.8810 90° East 466 536 37,000  Level FlightAware ADS-B
Sat 05:54:43 PM 42.5000 -87.7630 90° East 467 537 37,000  Level FlightAware ADS-B
Sat 05:55:24 PM 42.5000 -87.6430 90° East 469 540 37,000  Level FlightAware ADS-B
Sat 05:56:09 PM 42.4990 -87.5060 91° East 471 542 37,000  Level FlightAware ADS-B
Sat 05:56:51 PM 42.4990 -87.3840 90° East 472 543 37,000  Level FlightAware ADS-B
Sat 05:57:27 PM 42.4980 -87.2800 91° East 473 544 37,000  Level FlightAware ADS-B
Sat 05:58:12 PM 42.4970 -87.1500 91° East 475 547 37,000  Level FlightAware ADS-B
Sat 05:58:57 PM 42.4960 -87.0070 90° East 477 549 37,000  Level FlightAware ADS-B
Sat 05:59:36 PM 42.4950 -86.8960 91° East 479 551 37,000  Level FlightAware ADS-B
Sat 06:00:19 PM 42.4940 -86.7660 91° East 479 551 37,000  Level FlightAware ADS-B
Sat 06:01:03 PM 42.4920 -86.6390 91° East 477 549 37,000  Level FlightAware ADS-B
Sat 06:01:46 PM 42.4910 -86.5110 91° East 474 545 37,000  Level FlightAware ADS-B
Sat 06:02:27 PM 42.4890 -86.3860 91° East 471 542 37,000  Level FlightAware ADS-B
Sat 06:03:05 PM 42.4880 -86.2750 91° East 469 540 37,000  Level FlightAware ADS-B
Sat 06:03:52 PM 42.4850 -86.1360 92° East 467 537 37,000  Level FlightAware ADS-B
Sat 06:04:32 PM 42.4940 -86.0190 84° East 472 543 37,000  Level FlightAware ADS-B
Sat 06:05:10 PM 42.5170 -85.9100 74° East 473 544 37,000  Level FlightAware ADS-B
Sat 06:05:56 PM 42.5440 -85.7810 74° East 472 543 37,000  Level FlightAware ADS-B
Sat 06:06:39 PM 42.5690 -85.6570 75° East 472 543 37,000  Level FlightAware ADS-B
Sat 06:07:16 PM 42.5910 -85.5530 74° East 471 542 37,000  Level FlightAware ADS-B
Sat 06:08:04 PM 42.6190 -85.4150 75° East 471 542 37,000  Level FlightAware ADS-B
Sat 06:08:46 PM 42.6430 -85.2970 75° East 472 543 37,000  Level FlightAware ADS-B
Sat 06:09:28 PM 42.6670 -85.1780 75° East 471 542 37,000  Level FlightAware ADS-B
Sat 06:10:09 PM 42.6910 -85.0580 75° East 472 543 37,000  Level FlightAware ADS-B
Sat 06:10:50 PM 42.7130 -84.9430 75° East 471 542 37,000  Level FlightAware ADS-B
Sat 06:11:21 PM 42.7240 -84.8890 74° East 470 541 37,000  Level FlightAware ADS-B
Sat 06:12:08 PM 42.7560 -84.7250 75° East 471 542 37,000  Level FlightAware ADS-B
Sat 06:12:52 PM 42.7810 -84.5980 75° East 470 541 37,000  Level FlightAware ADS-B
Sat 06:13:36 PM 42.8060 -84.4690 75° East 469 540 37,000  Level FlightAware ADS-B
Sat 06:14:18 PM 42.8270 -84.3500 76° East 467 537 37,000  Level FlightAware ADS-B
Sat 06:14:57 PM 42.8460 -84.2350 77° East 465 535 37,000  Level FlightAware ADS-B
Sat 06:15:38 PM 42.8620 -84.1200 79° East 466 536 37,000  Level FlightAware ADS-B
Sat 06:16:23 PM 42.8810 -83.9900 79° East 466 536 37,000  Level FlightAware ADS-B
Sat 06:17:04 PM 42.8980 -83.8750 79° East 466 536 37,000  Level FlightAware ADS-B
Sat 06:17:42 PM 42.9130 -83.7660 79° East 467 537 37,000  Level FlightAware ADS-B
Sat 06:18:40 PM 42.9100 -83.5940 91° East 471 542 37,000  Level FlightAware ADS-B
Sat 06:19:24 PM 42.9030 -83.4640 94° East 470 541 37,000  Level FlightAware ADS-B
Sat 06:20:03 PM 42.8880 -83.3490 100° East 469 540 37,000  Level FlightAware ADS-B
Sat 06:20:49 PM 42.8690 -83.2180 101° East 470 541 37,000  Level FlightAware ADS-B
Sat 06:21:29 PM 42.8520 -83.1020 101° East 469 540 37,000  Level FlightAware ADS-B
Sat 06:22:11 PM 42.8340 -82.9820 102° East 470 541 37,000  Level FlightAware ADS-B
Sat 06:22:51 PM 42.8170 -82.8650 101° East 471 542 37,000  Level FlightAware ADS-B
Sat 06:23:37 PM 42.7970 -82.7320 102° East 470 541 37,000  Level FlightAware ADS-B
Sat 06:24:15 PM 42.7800 -82.6240 102° East 470 541 37,000  Level FlightAware ADS-B
Sat 06:25:01 PM 42.7590 -82.4880 102° East 471 542 37,000  Level FlightAware ADS-B
Sat 06:25:41 PM 42.7420 -82.3740 101° East 474 545 37,000  Level FlightAware ADS-B
Sat 06:26:21 PM 42.7270 -82.2750 102° East 474 545 37,000  Level FlightAware ADS-B
Sat 06:27:06 PM 42.7070 -82.1490 102° East 475 547 37,000  Level FlightAware ADS-B
Sat 06:27:44 PM 42.6880 -82.0300 102° East 474 545 37,000  Level FlightAware ADS-B
Sat 06:28:31 PM 42.6670 -81.8970 102° East 474 545 37,000  Level FlightAware ADS-B
Sat 06:29:10 PM 42.6470 -81.7740 102° East 476 548 37,000  Level FlightAware ADS-B
Sat 06:29:54 PM 42.6280 -81.6530 102° East 475 547 37,000  Level FlightAware ADS-B
Sat 06:30:36 PM 42.6080 -81.5300 102° East 475 547 37,000  Level FlightAware ADS-B
Sat 06:31:18 PM 42.5880 -81.4100 103° East 476 548 37,000  Level FlightAware ADS-B
Sat 06:31:56 PM 42.5700 -81.3030 103° East 475 547 37,000  Level FlightAware ADS-B
Sat 06:32:36 PM 42.5500 -81.1800 102° East 473 544 37,000  Level FlightAware ADS-B
Sat 06:33:19 PM 42.5300 -81.0600 103° East 473 544 37,000  Level FlightAware ADS-B
Sat 06:34:04 PM 42.5100 -80.9400 103° East 473 544 37,000  Level FlightAware ADS-B
Sat 06:34:42 PM 42.4890 -80.8180 103° East 474 545 37,000  Level FlightAware ADS-B
Sat 06:35:31 PM 42.4650 -80.6730 103° East 474 545 37,000  Level FlightAware ADS-B
Sat 06:36:09 PM 42.4460 -80.5660 103° East 474 545 37,000  Level FlightAware ADS-B
Sat 06:36:48 PM 42.4270 -80.4520 103° East 474 545 37,000  Level FlightAware ADS-B
Sat 06:37:35 PM 42.4000 -80.2990 103° East 474 545 37,000  Level FlightAware ADS-B
Sat 06:38:19 PM 42.3780 -80.1720 103° East 472 543 37,000  Level FlightAware ADS-B
Sat 06:38:59 PM 42.3580 -80.0590 103° East 472 543 37,000  Level FlightAware ADS-B
Sat 06:39:42 PM 42.3370 -79.9360 103° East 471 542 37,000  Level FlightAware ADS-B
Sat 06:40:23 PM 42.3160 -79.8220 104° East 471 542 37,000  Level FlightAware ADS-B
Sat 06:41:07 PM 42.2940 -79.6970 103° East 471 542 37,000  Level FlightAware ADS-B
Sat 06:41:48 PM 42.2730 -79.5830 104° East 469 540 37,000  Level FlightAware ADS-B
Sat 06:42:31 PM 42.2510 -79.4590 103° East 465 535 37,000  Level FlightAware ADS-B
Sat 06:43:11 PM 42.2290 -79.3430 104° East 462 532 37,000  Level FlightAware ADS-B
Sat 06:43:55 PM 42.2070 -79.2220 104° East 459 528 37,000  Level FlightAware ADS-B
Sat 06:44:35 PM 42.1860 -79.1130 105° East 457 526 37,000  Level FlightAware ADS-B
Sat 06:45:19 PM 42.1560 -78.9910 108° East 457 526 37,000  Level FlightAware ADS-B
Sat 06:46:01 PM 42.1280 -78.8780 108° East 459 528 37,000  Level FlightAware ADS-B
Sat 06:46:37 PM 42.1040 -78.7830 109° East 460 529 37,000  Level FlightAware ADS-B
Sat 06:47:24 PM 42.0720 -78.6540 108° East 463 533 37,000  Level FlightAware ADS-B
Sat 06:48:05 PM 42.0430 -78.5430 109° East 464 534 37,000  Level FlightAware ADS-B
Sat 06:48:49 PM 42.0120 -78.4210 109° East 467 537 37,000  Level FlightAware ADS-B
Sat 06:49:29 PM 41.9840 -78.3120 109° East 469 540 37,000  Level FlightAware ADS-B
Sat 06:50:09 PM 41.9560 -78.2020 109° East 470 541 37,000  Level FlightAware ADS-B
Sat 06:50:53 PM 41.9240 -78.0800 109° East 472 543 37,000  Level FlightAware ADS-B
Sat 06:51:38 PM 41.8930 -77.9580 109° East 473 544 37,000  Level FlightAware ADS-B
Sat 06:52:18 PM 41.8640 -77.8500 110° East 473 544 37,000  Level FlightAware ADS-B
Sat 06:52:59 PM 41.8330 -77.7320 109° East 474 545 37,000  Level FlightAware ADS-B
Sat 06:53:41 PM 41.8030 -77.6150 109° East 474 545 37,000  Level FlightAware ADS-B
Sat 06:54:25 PM 41.7710 -77.4960 110° East 475 547 37,000  Level FlightAware ADS-B
Sat 06:55:07 PM 41.7400 -77.3780 109° East 472 543 37,000  Level FlightAware ADS-B
Sat 06:55:49 PM 41.7090 -77.2640 110° East 464 534 37,000  Level FlightAware ADS-B
Sat 06:56:29 PM 41.6800 -77.1550 110° East 461 531 37,000  Level FlightAware ADS-B
Sat 06:57:10 PM 41.6530 -77.0550 110° East 458 527 37,000 -439 Level FlightAware ADS-B
Sat 06:57:51 PM 41.6230 -76.9440 110° East 462 532 36,400 -1,017 Descending FlightAware ADS-B
Sat 06:58:09 PM 41.6076 -76.8889 110° East 465 535 36,000 -1,375 Descending FlightAware ADS-B
Sat 06:58:39 PM 41.5850 -76.8062 110° East 468 539 35,300 -1,455 Descending FlightAware ADS-B
Sat 06:59:15 PM 41.5584 -76.7092 110° East 474 545 34,400 -1,397 Descending FlightAware ADS-B
Sat 06:59:52 PM 41.5302 -76.6066 110° East 477 549 33,600 -1,235 Descending FlightAware ADS-B
Sat 07:00:23 PM 41.5064 -76.5205 110° East 479 551 33,000 -1,500 Descending FlightAware ADS-B
Sat 07:01:00 PM 41.4781 -76.4186 110° East 485 558 31,900 -1,676 Descending FlightAware ADS-B
Sat 07:01:31 PM 41.4541 -76.3319 110° East 495 570 31,100 -885 Descending FlightAware ADS-B
Sat 07:02:01 PM 41.4301 -76.2456 110° East 494 568 31,000 -300 Descending FlightAware ADS-B
Sat 07:02:31 PM 41.4062 -76.1603 110° East 492 566 30,800 -1,065 Descending FlightAware ADS-B
Sat 07:03:03 PM 41.3809 -76.0702 110° East 491 565 29,900 -2,381 Descending FlightAware ADS-B
Sat 07:03:34 PM 41.3558 -75.9813 111° Southeast 493 567 28,300 -3,541 Descending FlightAware ADS-B
Sat 07:04:04 PM 41.3314 -75.8953 111° Southeast 499 574 26,300 -3,639 Descending FlightAware ADS-B
Sat 07:04:35 PM 41.3069 -75.8088 111° Southeast 499 574 24,600 -2,710 Descending FlightAware ADS-B
Sat 07:05:06 PM 41.2816 -75.7210 111° Southeast 484 557 23,500 -1,524 Descending FlightAware ADS-B
Sat 07:05:38 PM 41.2545 -75.6344 113° Southeast 475 547 23,000 -469 Descending FlightAware ADS-B
Sat 07:06:10 PM 41.2255 -75.5469 114° Southeast 477 549 23,000  Level FlightAware ADS-B
Sat 07:06:41 PM 41.1984 -75.4661 114° Southeast 472 543 23,000  Level FlightAware ADS-B
Sat 07:07:11 PM 41.1722 -75.3883 114° Southeast 453 521 23,000  Level FlightAware ADS-B
Sat 07:07:42 PM 41.1455 -75.3093 114° Southeast 450 518 23,000  Level FlightAware ADS-B
Sat 07:08:13 PM 41.1192 -75.2312 114° Southeast 451 519 23,000  Level FlightAware ADS-B
Sat 07:08:44 PM 41.0932 -75.1542 114° Southeast 453 521 23,000  Level FlightAware ADS-B
Sat 07:09:15 PM 41.0665 -75.0756 114° Southeast 452 520 23,000  Level FlightAware ADS-B
Sat 07:09:45 PM 41.0406 -74.9997 114° Southeast 452 520 23,000  Level FlightAware ADS-B
Sat 07:10:18 PM 41.0126 -74.9173 114° Southeast 452 520 23,000  Level FlightAware ADS-B
Sat 07:10:38 PM 40.9984 -74.8630 109° East 451 519 23,000  Level FlightAware ADS-B
Sat 07:10:39 PM 40.9978 -74.8604 107° East 452 520 23,000 -857 Level FlightAware ADS-B
Sat 07:10:59 PM 40.9892 -74.8080 102° East 446 513 22,700 -1,241 Descending FlightAware ADS-B
Sat 07:11:08 PM 40.9861 -74.7834 99° East 444 511 22,400 -2,100 Descending FlightAware ADS-B
Sat 07:11:39 PM 40.9771 -74.7014 98° East 438 504 21,300 -2,190 Descending FlightAware ADS-B
Sat 07:12:11 PM 40.9685 -74.6179 98° East 432 497 20,100 -2,250 Descending FlightAware ADS-B
Sat 07:12:19 PM 40.9662 -74.5965 98° East 430 495 19,800 -2,000 Descending FlightAware ADS-B
Sat 07:12:41 PM 40.9602 -74.5402 98° East 422 486 19,100 -906 Descending FlightAware ADS-B
Sat 07:13:12 PM 40.9519 -74.4634 98° East 388 447 19,000 -97 Descending FlightAware ADS-B
Sat 07:13:43 PM 40.9442 -74.3938 98° East 362 417 19,000  Level FlightAware ADS-B
Sat 07:14:18 PM 40.9358 -74.3193 98° East 358 412 19,000  Level FlightAware ADS-B
Sat 07:14:48 PM 40.9283 -74.2528 98° East 358 412 19,000  Level FlightAware ADS-B
Sat 07:15:20 PM 40.9203 -74.1833 99° East 360 414 19,000 -140 Level FlightAware ADS-B
Sat 07:15:31 PM 40.9167 -74.1612 102° East 359 413 18,900 -750 Descending FlightAware ADS-B
Sat 07:15:36 PM 40.9138 -74.1501 109° East 357 411 18,800 -1,263 Descending FlightAware ADS-B
Sat 07:15:50 PM 40.9029 -74.1252 120° Southeast 350 403 18,500 -1,200 Descending FlightAware ADS-B
Sat 07:15:56 PM 40.8965 -74.1152 130° Southeast 347 399 18,400 -1,500 Descending FlightAware ADS-B
Sat 07:16:06 PM 40.8839 -74.1013 140° Southeast 343 395 18,100 -1,765 Descending FlightAware ADS-B
Sat 07:16:13 PM 40.8741 -74.0938 150° Southeast 340 391 17,900 -1,737 Descending FlightAware ADS-B
Sat 07:16:44 PM 40.8291 -74.0736 161° South 335 386 17,000 -1,672 Descending FlightAware ADS-B
Sat 07:17:14 PM 40.7847 -74.0553 163° South 334 384 16,200 -1,535 Descending FlightAware ADS-B
Sat 07:17:27 PM 40.7649 -74.0472 163° South 334 384 15,900 -800 Descending FlightAware ADS-B
Sat 07:17:44 PM 40.7392 -74.0369 163° South 339 390 15,800 -875 Descending FlightAware ADS-B
Sat 07:18:15 PM 40.6930 -74.0188 163° South 333 383 15,200 -1,238 Descending FlightAware ADS-B
Sat 07:18:47 PM 40.6468 -74.0005 163° South 327 376 14,500 -1,360 Descending FlightAware ADS-B
Sat 07:19:30 PM 40.5852 -73.9761 163° South 322 371 13,500 -1,440 Descending FlightAware ADS-B
Sat 07:20:02 PM 40.5410 -73.9568 162° South 322 371 12,700 -1,364 Descending FlightAware ADS-B
Sat 07:20:14 PM 40.5265 -73.9431 144° Southeast 320 368 12,500 -1,059 Descending FlightAware ADS-B
Sat 07:20:19 PM 40.5214 -73.9369 137° Southeast 320 368 12,400 -1,543 Descending FlightAware ADS-B
Sat 07:20:49 PM 40.4898 -73.8957 135° Southeast 317 365 11,600 -1,400 Descending FlightAware ADS-B
Sat 07:21:19 PM 40.4590 -73.8549 135° Southeast 313 360 11,000 -1,400 Descending FlightAware ADS-B
Sat 07:21:49 PM 40.4282 -73.8156 136° Southeast 304 350 10,200 -1,867 Descending FlightAware ADS-B
Sat 07:22:04 PM 40.4128 -73.7963 136° Southeast 301 346 9,600 -2,323 Descending FlightAware ADS-B
Sat 07:22:20 PM 40.3968 -73.7764 137° Southeast 298 343 9,000 -2,364 Descending FlightAware ADS-B
Sat 07:22:37 PM 40.3796 -73.7547 136° Southeast 296 341 8,300 -2,294 Descending FlightAware ADS-B
Sat 07:22:54 PM 40.3637 -73.7341 135° Southeast 295 339 7,700 -2,270 Descending FlightAware ADS-B
Sat 07:23:14 PM 40.3448 -73.7068 132° Southeast 295 339 6,900 -2,250 Descending FlightAware ADS-B
Sat 07:23:26 PM 40.3386 -73.6883 114° Southeast 294 338 6,500 -1,846 Descending FlightAware ADS-B
Sat 07:23:40 PM 40.3370 -73.6643 95° East 291 335 6,100 -1,615 Descending FlightAware ADS-B
Sat 07:23:52 PM 40.3375 -73.6429 88° East 289 333 5,800 -1,650 Descending FlightAware ADS-B
Sat 07:24:20 PM 40.3548 -73.6010 62° Northeast 279 321 5,000 -1,500 Descending FlightAware ADS-B
Sat 07:25:00 PM 40.3970 -73.5690 30° Northeast 275 316 4,100 -1,059 Descending FlightAware ADS-B
Sat 07:25:28 PM 40.4290 -73.5470 28° Northeast 272 313 3,800 -346 Descending FlightAware ADS-B
Sat 07:25:52 PM 40.4590 -73.5380 13° North 269 310 3,800  Level FlightAware ADS-B
Sat 07:26:25 PM 40.4990 -73.5290 10° North 268 308 3,800  Level FlightAware ADS-B
Sat 07:26:51 PM 40.5300 -73.5220 10° North 266 306 3,800 -167 Level FlightAware ADS-B
Sat 07:27:01 PM 40.5420 -73.5200 North 262 302 3,700 -1,256 Descending FlightAware ADS-B
Sat 07:27:34 PM 40.5820 -73.5280 351° North 263 303 2,900 -1,200 Descending FlightAware ADS-B
Sat 07:27:46 PM 40.5970 -73.5320 349° North 268 308 2,800 -150 Descending FlightAware ADS-B
Sat 07:28:14 PM 40.6310 -73.5410 349° North 262 302 2,800  Level FlightAware ADS-B
Sat 07:28:42 PM 40.6620 -73.5490 349° North 238 274 2,800 -321 Level FlightAware ADS-B
Sat 07:29:10 PM 40.6920 -73.5570 349° North 227 261 2,500 -682 Descending FlightAware ADS-B
Sat 07:29:26 PM 40.7080 -73.5600 352° North 225 259 2,300 -955 Descending FlightAware ADS-B
Sat 07:29:54 PM 40.7360 -73.5710 343° North 224 258 1,800 -732 Descending FlightAware ADS-B
Sat 07:30:07 PM 40.7460 -73.5840 315° West 223 257 1,800  Level FlightAware ADS-B
Sat 07:30:32 PM 40.7620 -73.6090 310° West 222 255 1,800  Level FlightAware ADS-B
Sat 07:31:02 PM 40.7770 -73.6430 300° West 215 247 1,800  Level FlightAware ADS-B
Sat 07:31:28 PM 40.7650 -73.6690 239° Southwest 201 231 1,800  Level FlightAware ADS-B
Sat 07:31:58 PM 40.7420 -73.6820 203° Southwest 174 200 1,800 -300 Level FlightAware ADS-B
Sat 07:32:28 PM 40.7200 -73.6970 207° Southwest 170 196 1,500 -724 Descending FlightAware ADS-B
Sat 07:32:56 PM 40.7020 -73.7100 209° Southwest 141 162 1,100 -737 Descending FlightAware ADS-B
Sat 07:33:25 PM 40.6870 -73.7220 211° Southwest 118 136 800 -600 Descending FlightAware ADS-B
Sat 07:33:36 PM 40.6820 -73.7260 211° Southwest 120 138 700 -585 Descending FlightAware ADS-B
Sat 07:34:06 PM 40.6680 -73.7370 211° Southwest 126 145 400 -682 Descending FlightAware ADS-B
Sat 07:34:20 PM 40.6602 -73.7432 211° Southwest 131 151 200 -857 Descending FlightAware ADS-B
Sat 07:35:00 PM 40.6390 -73.7600 211° Southwest 129 148 -300 Descending FlightAware ADS-B
Sat 07:35:12 PM 40.6340 -73.7640 211° Southwest 86 99  Level FlightAware ADS-B
Sat 07:35:41 PM 40.6300 -73.7680 217° Southwest 20 23  Level FlightAware ADS-B
Sat 07:35:57 PM 40.6290 -73.7690 217° Southwest 15 17  Level FlightAware ADS-B
Sat 07:36:07 PM 40.6300 -73.7700 323° Northwest 17 20  Level FlightAware ADS-B
Sat 07:36:38 PM 40.6320 -73.7700 360° North 18 21  Level FlightAware ADS-B

Login

Don't have an account? Register now (free) for customized features, flight alerts, and more!